Latest Coastal Weather Observations for Learmonth

IDW60701

Issued at 4:32 pm WST Sunday 2 August 2015 (issued every 10 minutes, with the page automatically refreshed every 10 minutes)

About coastal observations | Map of coastal stations | Coastal observations for WA | Marine services | Other Formats
Station Details ID: 005007 Name: LEARMONTH AIRPORT Lat: -22.24 Lon: 114.10 Height: 5.0 m
Data from the previous 72 hours. | See also: Recent months at Learmonth
Date/Time
WST
Temp

°C
Wind Pressure Rain
since 9am
mm
Weather Cloud Vis
km
Sea
Height
m
Swell
Dir
 
Speed
knots
Gust
knots
hPa Trend Height
m
Period
s
Dir
02/04:30pm 26.5 SSE 10 13 1018.6 - 0.0 - - 10 - - - -
02/04:00pm 26.7 SE 10 15 1018.6 - 0.0 - - 10 - - - -
02/03:30pm 26.5 SSE 10 15 1018.7 - 0.0 - - 10 - - - -
02/03:00pm 26.6 SSE 11 17 1018.9 - 0.0 - - 10 - - - -
02/02:30pm 26.2 SE 11 15 1019.2 - 0.0 - - 10 - - - -
02/02:00pm 26.0 SE 11 16 1019.4 - 0.0 - - 10 - - - -
02/01:30pm 26.0 SSE 12 16 1019.8 - 0.0 - - 10 - - - -
02/01:00pm 25.7 SE 12 15 1020.3 - 0.0 - - 10 - - - -
02/12:30pm 25.3 SE 13 18 1020.6 - 0.0 - - 10 - - - -
02/12:00pm 24.6 SE 13 18 1020.8 - 0.0 - - 10 - - - -
02/11:30am 24.2 SE 15 19 1021.2 - 0.0 - - 10 - - - -
02/11:00am 22.9 SE 14 18 1021.7 - 0.0 - - 10 - - - -
02/10:30am 22.2 SE 14 18 1021.9 - 0.0 - - 10 - - - -
02/10:00am 21.5 SE 15 17 1021.9 - 0.0 - - 10 - - - -
02/09:30am 20.1 SE 13 17 1022.0 - 0.0 - - 10 - - - -
02/09:00am 19.2 SSE 13 17 1021.7 - 0.0 - - 10 - - - -
02/08:30am 17.9 SSE 10 16 1021.5 - 0.0 - - 10 - - - -
02/08:00am 14.8 S 6 7 1021.2 - 0.0 - - 10 - - - -
02/07:30am 13.0 SSW 8 9 1020.7 - 0.0 - - 10 - - - -
02/07:00am 12.3 SW 7 8 1020.5 - 0.0 - - 10 - - - -
02/06:30am 12.5 SW 8 9 1020.2 - 0.0 - - 10 - - - -
02/06:00am 12.8 SW 8 9 1019.8 - 0.0 - - 10 - - - -
02/05:30am 12.9 SSW 8 9 1019.5 - 0.0 - - 10 - - - -
02/05:00am 13.4 SW 8 9 1019.6 - 0.0 - - 10 - - - -
02/04:30am 13.1 SW 7 9 1019.5 - 0.0 - - 10 - - - -
02/04:00am 13.3 SSW 8 9 1019.4 - 0.0 - - 10 - - - -
02/03:30am 13.2 SSW 7 8 1019.3 - 0.0 - - 10 - - - -
02/03:00am 13.8 SSW 8 9 1019.2 - 0.0 - - 10 - - - -
02/02:30am 14.0 SSW 8 10 1019.6 - 0.0 - - 10 - - - -
02/02:00am 14.7 SSW 7 10 1019.9 - 0.0 - - 10 - - - -
02/01:30am 15.0 SSW 9 10 1020.0 - 0.0 - - 10 - - - -
02/01:00am 15.4 SSW 9 11 1020.0 - 0.0 - - 10 - - - -
02/12:30am 15.3 SSW 9 11 1020.0 - 0.0 - - 10 - - - -
02/12:00am 15.6 SSW 9 12 1019.9 - 0.0 - - 10 - - - -
 
Date/Time
WST
Temp

°C
Wind Pressure Rain
since 9am
mm
Weather Cloud Vis
km
Sea
Height
m
Swell
Dir
 
Speed
knots
Gust
knots
hPa Trend Height
m
Period
s
Dir
01/11:30pm 16.0 SSW 10 12 1020.1 - 0.0 - - 10 - - - -
01/11:00pm 16.7 SSW 11 13 1020.0 - 0.0 - - 10 - - - -
01/10:30pm 17.0 SSW 11 14 1020.0 - 0.0 - - 10 - - - -
01/10:00pm 16.9 SSW 9 11 1019.9 - 0.0 - - 10 - - - -
01/09:30pm 16.7 SSW 8 9 1019.8 - 0.0 - - 10 - - - -
01/09:00pm 16.4 SW 8 9 1019.6 - 0.0 - - 10 - - - -
01/08:30pm 17.2 SW 8 9 1019.6 - 0.0 - - 10 - - - -
01/08:00pm 18.0 SW 7 9 1019.2 - 0.0 - - 10 - - - -
01/07:30pm 19.0 SW 9 12 1018.8 - 0.0 - - 10 - - - -
01/07:00pm 19.3 SSW 9 12 1018.5 - 0.0 - - 10 - - - -
01/06:30pm 20.1 SSW 10 13 1018.2 - 0.0 - - 10 - - - -
01/06:00pm 21.4 SSW 9 12 1017.7 - 0.0 - Partly cloudy 10 - - - -
01/05:30pm 23.2 N 3 5 1017.6 - 0.0 - Partly cloudy 10 - - - -
01/05:00pm 22.6 N 6 7 1017.4 - 0.0 - Partly cloudy 10 - - - -
01/04:30pm 23.3 N 7 10 1017.2 - 0.0 - Partly cloudy 10 - - - -
01/04:00pm 23.5 N 7 9 1017.3 - 0.0 - Partly cloudy 10 - - - -
01/03:30pm 24.1 NNE 8 10 1017.4 - 0.0 - Partly cloudy 10 - - - -
01/03:00pm 23.6 NNE 8 11 1017.3 - 0.0 - Partly cloudy 10 - - - -
01/02:30pm 23.2 NE 7 11 1017.6 - 0.0 - Partly cloudy 10 - - - -
01/02:00pm 23.9 ENE 9 12 1017.6 - 0.0 - Partly cloudy 10 - - - -
01/01:30pm 23.3 NE 9 11 1017.7 - 0.0 - Partly cloudy 10 - - - -
01/01:00pm 23.9 NE 9 13 1018.1 - 0.0 - - 10 - - - -
01/12:30pm 23.6 ENE 10 12 1018.3 - 0.0 - - 10 - - - -
01/12:00pm 25.2 SW 8 12 1018.6 - 0.0 - - 10 - - - -
01/11:30am 24.5 SSW 9 13 1019.2 - 0.0 - - 10 - - - -
01/11:00am 24.2 SSW 10 13 1019.5 - 0.0 - - 10 - - - -
01/10:30am 23.5 SW 9 18 1019.7 - 0.0 - - 10 - - - -
01/10:00am 23.1 SW 9 13 1019.8 - 0.0 - - 10 - - - -
01/09:30am 21.9 SW 9 14 1019.7 - 0.0 - - 10 - - - -
01/09:00am 20.4 SW 5 7 1019.3 - 0.2 - - 10 - - - -
01/08:30am 18.4 WSW 4 5 1019.1 - 0.2 - - 10 - - - -
01/08:00am 16.5 SW 3 4 1018.7 - 0.2 - - 10 - - - -
01/07:30am 15.1 SSW 4 5 1018.5 - 0.2 - - 10 - - - -
01/07:00am 14.2 S 5 6 1018.1 - 0.0 - - 10 - - - -
01/06:30am 14.8 SSW 4 5 1017.7 - 0.0 - - 10 - - - -
01/06:00am 15.3 SW 7 8 1017.3 - 0.0 - - 10 - - - -
01/05:30am 15.8 SSW 7 8 1017.3 - 0.0 - - 10 - - - -
01/05:00am 16.6 SW 5 6 1017.1 - 0.0 - Partly cloudy 10 - - - -
01/04:30am 16.7 SSW 7 8 1017.2 - 0.0 - - 10 - - - -
01/04:00am 16.3 SSW 7 8 1017.0 - 0.0 - - 10 - - - -
01/03:30am 16.9 SSW 6 8 1016.9 - 0.0 - - 10 - - - -
01/03:00am 17.2 S 7 8 1016.9 - 0.0 - - 10 - - - -
01/02:30am 17.3 S 7 8 1017.1 - 0.0 - - 10 - - - -
01/02:00am 17.9 SSW 7 9 1017.1 - 0.0 - - 10 - - - -
01/01:30am 18.3 SSW 7 9 1017.2 - 0.0 - - 10 - - - -
01/01:00am 18.4 SSW 7 8 1017.3 - 0.0 - - 10 - - - -
01/12:30am 18.6 SSW 7 9 1017.3 - 0.0 - - 10 - - - -
01/12:00am 19.1 SW 7 9 1017.5 - 0.0 - - 10 - - - -
 
Date/Time
WST
Temp

°C
Wind Pressure Rain
since 9am
mm
Weather Cloud Vis
km
Sea
Height
m
Swell
Dir
 
Speed
knots
Gust
knots
hPa Trend Height
m
Period
s
Dir
31/11:30pm 19.3 SW 8 10 1017.6 - 0.0 - - 10 - - - -
31/11:00pm 18.6 SSW 8 9 1017.6 - 0.0 - - 10 - - - -
31/10:30pm 18.8 SSW 5 6 1017.6 - 0.0 - - 10 - - - -
31/10:00pm 18.3 SW 6 7 1017.5 - 0.0 - Partly cloudy 10 - - - -
31/09:30pm 18.3 SSW 7 8 1017.3 - 0.0 - - 10 - - - -
31/09:00pm 18.6 SSW 6 7 1017.1 - 0.0 - - 10 - - - -
31/08:30pm 19.1 SW 7 7 1017.1 - 0.0 - - 10 - - - -
31/08:00pm 19.3 SW 7 8 1016.8 - 0.0 - - 10 - - - -
31/07:30pm 20.6 SW 7 9 1016.5 - 0.0 - - 10 - - - -
31/07:00pm 21.0 WSW 8 9 1016.1 - 0.0 - - 10 - - - -
31/06:30pm 21.9 WSW 10 13 1015.9 - 0.0 - - 10 - - - -
31/06:00pm 22.5 WSW 10 14 1015.6 - 0.0 - - 10 - - - -
31/05:30pm 23.7 WSW 13 16 1015.5 - 0.0 - - 10 - - - -
31/05:00pm 24.6 W 13 17 1015.4 - 0.0 - - 10 - - - -
31/04:30pm 25.6 W 13 16 1015.4 - 0.0 - - 10 - - - -
31/04:00pm 26.2 W 11 15 1015.2 - 0.0 - - 10 - - - -
31/03:30pm 26.9 W 12 14 1015.2 - 0.0 - - 10 - - - -
31/03:00pm 27.7 W 12 15 1015.0 - 0.0 - - 10 - - - -
31/02:30pm 27.4 W 10 14 1015.3 - 0.0 - - 10 - - - -
31/02:00pm 25.1 NE 7 10 1015.6 - 0.0 - - 10 - - - -
31/01:30pm 25.2 NNE 6 8 1015.9 - 0.0 - - 10 - - - -
31/01:00pm 24.9 ENE 7 8 1016.3 - 0.0 - - 10 - - - -
31/12:30pm 23.6 ENE 7 9 1016.7 - 0.0 - - 10 - - - -
31/12:00pm 24.0 NE 7 8 1016.7 - 0.0 - - 10 - - - -
31/11:30am 23.7 ENE 7 9 1017.1 - 0.0 - - 10 - - - -
31/11:00am 22.8 E 7 8 1017.7 - 0.0 - - 10 - - - -
31/10:30am 22.8 ENE 5 7 1018.0 - 0.0 - - 10 - - - -
31/10:00am 21.6 E 5 6 1018.1 - 0.0 - - 10 - - - -
31/09:30am 20.9 ENE 4 6 1018.1 - 0.0 - - 10 - - - -
31/09:22am 21.0 ENE 4 5 1018.1 - 0.0 - Partly cloudy 10 - - - -
31/09:20am 20.8 NE 4 5 1018.1 - 0.0 - Partly cloudy 10 - - - -
31/09:00am 19.8 CALM 0 - 1017.9 - 0.0 - Mostly cloudy 1 - - - -
31/08:42am 19.0 CALM 0 - 1018.0 - 0.0 - Cloudy 0.3 - - - -
31/08:30am 18.6 CALM 0 2 1018.0 - 0.0 - Cloudy 0.2 - - - -
31/08:00am 17.6 CALM 0 - 1017.6 - 0.0 - Cloudy 0.1 - - - -
31/07:30am 16.5 SW 3 4 1017.3 - 0.0 - Cloudy 0.1 - - - -
31/07:00am 15.5 WSW 1 3 1017.0 - 0.0 - Partly cloudy 0.1 - - - -
31/06:47am 15.5 SW 2 4 1017.0 - 0.0 - Partly cloudy 0.9 - - - -
31/06:45am 15.3 SW 3 4 1017.0 - 0.0 - Partly cloudy 5 - - - -
31/06:30am 15.5 SW 3 5 1016.8 - 0.0 - Partly cloudy 10 - - - -
31/06:11am 15.4 SW 5 7 1016.7 - 0.0 - Partly cloudy 10 - - - -
31/06:10am 15.3 SW 5 7 1016.7 - 0.0 - Partly cloudy 10 - - - -
31/06:00am 15.1 WSW 3 8 1016.7 - 0.0 - - 8 - - - -
31/05:30am 16.1 CALM 0 4 1016.3 - 0.0 - Partly cloudy 3 - - - -
31/05:24am 16.2 S 4 7 1016.3 - 0.0 - Partly cloudy 1 - - - -
31/05:07am 16.6 S 7 11 1016.4 - 0.0 - Partly cloudy 0.2 - - - -
31/05:00am 16.7 S 7 10 1016.5 - 0.0 - Partly cloudy 0.5 - - - -
31/04:30am 17.0 SSE 7 10 1016.6 - 0.0 - Cloudy 0.1 - - - -
31/04:06am 16.4 SSW 7 10 1016.7 - 0.0 - Partly cloudy 0.2 - - - -
31/04:02am 16.2 S 6 10 1016.6 - 0.0 - Partly cloudy 0.7 - - - -
31/04:00am 16.1 SSE 6 10 1016.7 - 0.0 - Partly cloudy 2 - - - -
31/03:30am 15.8 SW 5 7 1016.6 - 0.0 - - 4 - - - -
31/03:09am 15.0 S 5 8 1016.6 - 0.0 - - 8 - - - -
31/03:00am 14.6 S 4 5 1016.5 - 0.0 - - 10 - - - -
31/02:30am 14.8 S 6 8 1016.7 - 0.0 - - 10 - - - -
31/02:00am 15.2 SSE 4 6 1017.1 - 0.0 - - 10 - - - -
31/01:30am 16.3 E 5 6 1017.3 - 0.0 - - 10 - - - -
31/01:00am 17.8 NE 3 5 1017.5 - 0.0 - - 10 - - - -
31/12:30am 19.1 N 4 5 1017.7 - 0.0 - - 10 - - - -
31/12:00am 18.7 N 1 4 1017.8 - 0.0 - - 10 - - - -
 
Date/Time
WST
Temp

°C
Wind Pressure Rain
since 9am
mm
Weather Cloud Vis
km
Sea
Height
m
Swell
Dir
 
Speed
knots
Gust
knots
hPa Trend Height
m
Period
s
Dir
30/11:30pm 18.3 CALM 0 0 1018.3 - 0.0 - - 10 - - - -
30/11:00pm 18.1 CALM 0 3 1018.6 - 0.0 - - 10 - - - -
30/10:30pm 18.7 CALM 0 0 1018.8 - 0.0 - - 10 - - - -
30/10:00pm 19.8 W 4 5 1018.8 - 0.0 - - 10 - - - -
30/09:30pm 19.2 WSW 5 7 1019.0 - 0.0 - - 10 - - - -
30/09:00pm 19.2 WSW 6 10 1018.9 - 0.0 - - 10 - - - -
30/08:30pm 19.0 W 4 6 1018.8 - 0.0 - - 10 - - - -
30/08:00pm 19.7 N 5 5 1018.6 - 0.0 - - 10 - - - -
30/07:30pm 20.2 N 5 6 1018.4 - 0.0 - - 10 - - - -
30/07:00pm 20.8 N 4 5 1018.1 - 0.0 - - 10 - - - -
30/06:30pm 21.3 N 4 5 1017.8 - 0.0 - - 10 - - - -
30/06:00pm 22.1 N 6 6 1017.5 - 0.0 - - 10 - - - -
30/05:30pm 23.7 N 7 9 1017.4 - 0.0 - - 10 - - - -
30/05:00pm 25.2 N 7 9 1017.3 - 0.0 - - 10 - - - -

Other Formats:

Comma delimited format used in spreadsheet applications
http://www.bom.gov.au/fwo/IDW60701/IDW60701.94302.axf

JavaScript Object Notation format (JSON) in row-major order
http://www.bom.gov.au/fwo/IDW60701/IDW60701.94302.json